Time;durP1;ratioP1;P1;durP2;ratioP2;P2;SDS_P1;SDS_P2;PMS_P1;PMS_P2;Temp;Humidity;BMP_temperature;BMP_pressure;BME280_temperature;BME280_humidity;BME280_pressure;Samples;Min_cycle;Max_cycle;Signal;HPM_P1;HPM_P2
2023/03/22 00:01:59;;;;;;;1999.90;999.90;;;;;;;8.08;100.00;97797.97;5093013;28;20016;-75
2023/03/22 00:04:25;;;;;;;1999.90;999.90;;;;;;;8.04;100.00;97807.78;5091801;28;20038;-74
2023/03/22 00:06:50;;;;;;;1999.90;999.90;;;;;;;7.98;100.00;97808.91;5092809;28;20027;-76
2023/03/22 00:09:16;;;;;;;1999.90;999.90;;;;;;;7.99;100.00;97802.34;5093014;28;20040;-76
2023/03/22 00:11:41;;;;;;;1999.90;999.90;;;;;;;7.96;100.00;97792.03;5093840;28;20028;-77
2023/03/22 00:14:06;;;;;;;1999.90;999.90;;;;;;;8.00;100.00;97810.25;5092977;28;20388;-77
2023/03/22 00:16:32;;;;;;;1999.90;999.90;;;;;;;7.88;100.00;97808.97;5092503;28;20109;-75
2023/03/22 00:18:57;;;;;;;1999.90;999.90;;;;;;;7.89;100.00;97808.66;5092455;28;20115;-75
2023/03/22 00:21:23;;;;;;;1999.90;999.90;;;;;;;7.72;100.00;97793.81;5092666;28;20086;-77
2023/03/22 00:23:48;;;;;;;1999.90;999.90;;;;;;;7.67;100.00;97802.00;5093005;28;20039;-77
2023/03/22 00:26:14;;;;;;;1999.90;999.90;;;;;;;7.72;100.00;97810.13;5092314;28;20028;-77
2023/03/22 00:28:41;;;;;;;1999.90;999.90;;;;;;;7.69;100.00;97805.25;5092182;28;20024;-74
2023/03/22 00:31:07;;;;;;;1999.90;999.90;;;;;;;7.69;100.00;97811.53;5077291;28;20478;-74
2023/03/22 00:33:32;;;;;;;1999.90;999.90;;;;;;;7.58;100.00;97803.69;5070793;28;20036;-77
2023/03/22 00:36:00;;;;;;;1999.90;999.90;;;;;;;7.64;100.00;97802.56;5071934;28;20032;-74
2023/03/22 00:38:35;;;;;;;1999.90;999.90;;;;;;;7.58;100.00;97795.53;5072135;28;20025;-75
2023/03/22 00:41:27;;;;;;;1999.90;999.90;;;;;;;7.55;100.00;97800.41;5071912;28;20031;-76
2023/03/22 00:43:52;;;;;;;1999.90;999.90;;;;;;;7.51;100.00;97793.94;5068760;28;20044;-76
2023/03/22 00:46:19;;;;;;;1999.90;999.90;;;;;;;7.58;100.00;97798.25;5071665;28;20103;-75
2023/03/22 00:48:45;;;;;;;1999.90;999.90;;;;;;;7.49;100.00;97795.28;5071775;28;20028;-76
2023/03/22 00:51:12;;;;;;;1999.90;999.90;;;;;;;7.49;100.00;97790.66;5071423;28;20025;-76
2023/03/22 00:53:38;;;;;;;1999.90;999.90;;;;;;;7.50;100.00;97784.13;5071703;28;20072;-76
2023/03/22 00:56:05;;;;;;;1999.90;999.90;;;;;;;7.44;100.00;97779.81;5071603;28;20078;-76
2023/03/22 00:58:30;;;;;;;1999.90;999.90;;;;;;;7.43;100.00;97780.88;5071219;28;20029;-76
2023/03/22 01:00:56;;;;;;;1999.90;999.90;;;;;;;7.46;100.00;97780.34;5071849;28;20094;-75
2023/03/22 01:03:23;;;;;;;1999.90;999.90;;;;;;;7.39;100.00;97779.81;5071659;28;20073;-76
2023/03/22 01:05:54;;;;;;;1999.90;999.90;;;;;;;7.34;100.00;97779.84;5071523;28;20063;-76
2023/03/22 01:08:21;;;;;;;1999.90;999.90;;;;;;;7.30;100.00;97772.53;5071703;28;20098;-74
2023/03/22 01:10:48;;;;;;;1999.90;999.90;;;;;;;7.24;100.00;97782.59;5073038;28;20021;-76
2023/03/22 01:13:13;;;;;;;1999.90;999.90;;;;;;;7.23;100.00;97770.13;5072492;28;20086;-75
2023/03/22 01:15:40;;;;;;;1999.90;999.90;;;;;;;7.28;100.00;97786.41;5071561;28;20032;-75
2023/03/22 01:18:06;;;;;;;1999.90;999.90;;;;;;;7.31;100.00;97765.97;5071298;28;20473;-79
2023/03/22 01:20:31;;;;;;;1999.90;999.90;;;;;;;7.26;100.00;97769.56;5072881;28;20024;-77
2023/03/22 01:22:57;;;;;;;1999.90;999.90;;;;;;;7.31;100.00;97772.25;5072640;28;20017;-75
2023/03/22 01:25:22;;;;;;;1999.90;999.90;;;;;;;7.14;100.00;97750.00;5070109;28;20492;-75
2023/03/22 01:27:47;;;;;;;1999.90;999.90;;;;;;;7.23;100.00;97763.84;5070999;28;20126;-75
2023/03/22 01:30:13;;;;;;;1999.90;999.90;;;;;;;7.17;100.00;97764.97;5071028;28;20020;-76
2023/03/22 01:32:39;;;;;;;1999.90;999.90;;;;;;;7.14;100.00;97751.94;5071274;28;20024;-75
2023/03/22 01:35:05;;;;;;;1999.90;999.90;;;;;;;7.27;100.00;97773.06;5071516;28;20540;-76
2023/03/22 01:37:31;;;;;;;1999.90;999.90;;;;;;;7.20;100.00;97764.41;5072199;28;20029;-76
2023/03/22 01:39:57;;;;;;;1999.90;999.90;;;;;;;7.18;100.00;97761.97;5071577;28;20027;-76
2023/03/22 01:42:24;;;;;;;1999.90;999.90;;;;;;;7.09;100.00;97750.03;5071116;28;20086;-75
2023/03/22 01:45:15;;;;;;;1999.90;999.90;;;;;;;7.10;100.00;97764.44;5070979;28;20489;-76
2023/03/22 01:48:03;;;;;;;1999.90;999.90;;;;;;;7.07;100.00;97763.09;5070978;28;20024;-75
2023/03/22 01:50:30;;;;;;;1999.90;999.90;;;;;;;6.88;100.00;97745.75;5078558;28;20054;-75
2023/03/22 01:52:56;;;;;;;1999.90;999.90;;;;;;;6.83;100.00;97754.72;5077081;28;20028;-76
2023/03/22 01:55:24;;;;;;;1999.90;999.90;;;;;;;6.92;100.00;97757.72;5083490;28;20028;-75
2023/03/22 01:57:51;;;;;;;1999.90;999.90;;;;;;;6.94;100.00;97761.78;5089833;28;20039;-76
2023/03/22 02:00:17;;;;;;;1999.90;999.90;;;;;;;6.88;100.00;97753.91;5090908;28;20047;-76
2023/03/22 02:02:46;;;;;;;1999.90;999.90;;;;;;;6.88;100.00;97746.56;5089433;28;20023;-74
2023/03/22 02:05:12;;;;;;;1999.90;999.90;;;;;;;6.92;100.00;97763.16;5093210;28;20024;-75
2023/03/22 02:07:40;;;;;;;1999.90;999.90;;;;;;;7.00;100.00;97762.56;5094179;28;20024;-76
2023/03/22 02:10:11;;;;;;;1999.90;999.90;;;;;;;7.04;100.00;97763.66;5094879;28;20032;-75
2023/03/22 02:13:17;;;;;;;1999.90;999.90;;;;;;;7.08;100.00;97747.59;5095233;28;20028;-75
2023/03/22 02:16:02;;;;;;;1999.90;999.90;;;;;;;6.94;100.00;97759.06;5092257;28;20040;-75
2023/03/22 02:18:34;;;;;;;1999.90;999.90;;;;;;;6.93;100.00;97762.03;5094525;28;20024;-76
2023/03/22 02:21:14;;;;;;;1999.90;999.90;;;;;;;6.89;100.00;97755.56;5093160;28;20054;-75
2023/03/22 02:23:55;;;;;;;1999.90;999.90;;;;;;;6.94;100.00;97752.81;5094590;28;20028;-76
2023/03/22 02:26:29;;;;;;;1999.90;999.90;;;;;;;6.94;100.00;97750.09;5093211;28;20039;-76
2023/03/22 02:29:03;;;;;;;1999.90;999.90;;;;;;;6.84;100.00;97748.22;5091861;28;20024;-75
2023/03/22 02:31:57;;;;;;;1999.90;999.90;;;;;;;6.78;100.00;97748.50;5072995;28;20046;-75
2023/03/22 02:34:59;;;;;;;1999.90;999.90;;;;;;;6.79;100.00;97752.84;5073999;28;20082;-74
2023/03/22 02:38:09;;;;;;;1999.90;999.90;;;;;;;6.66;100.00;97748.00;5073897;28;20024;-76
2023/03/22 02:40:48;;;;;;;1999.90;999.90;;;;;;;6.59;100.00;97752.88;5073750;28;20796;-77
2023/03/22 02:43:37;;;;;;;1999.90;999.90;;;;;;;6.73;100.00;97762.94;5073043;28;20036;-76
2023/03/22 02:46:16;;;;;;;1999.90;999.90;;;;;;;6.74;100.00;97761.81;5073846;28;20036;-76
2023/03/22 02:49:10;;;;;;;1999.90;999.90;;;;;;;6.74;100.00;97763.72;5073537;28;20522;-77
2023/03/22 02:51:43;;;;;;;1999.90;999.90;;;;;;;6.79;100.00;97758.28;5070845;28;20497;-74
2023/03/22 02:54:19;;;;;;;1999.90;999.90;;;;;;;6.79;100.00;97772.69;5074772;28;20485;-74
2023/03/22 02:56:58;;;;;;;1999.90;999.90;;;;;;;6.81;100.00;97767.78;5074230;28;20063;-74
2023/03/22 02:59:26;;;;;;;1999.90;999.90;;;;;;;6.78;100.00;97752.03;5075325;28;20028;-75
2023/03/22 03:01:55;;;;;;;1999.90;999.90;;;;;;;6.88;100.00;97762.06;5073882;28;20745;-74
2023/03/22 03:04:27;;;;;;;1999.90;999.90;;;;;;;6.89;100.00;97763.72;5075403;28;20033;-75
2023/03/22 03:06:56;;;;;;;1999.90;999.90;;;;;;;6.81;100.00;97761.53;5074266;28;20102;-78
2023/03/22 03:09:23;;;;;;;1999.90;999.90;;;;;;;6.72;100.00;97764.00;5073624;28;20569;-74
2023/03/22 03:11:51;;;;;;;1999.90;999.90;;;;;;;6.75;100.00;97770.78;5073102;28;20035;-74
2023/03/22 03:14:26;;;;;;;1999.90;999.90;;;;;;;6.65;100.00;97768.09;5073156;28;20111;-74
2023/03/22 03:17:07;;;;;;;1999.90;999.90;;;;;;;6.73;100.00;97772.97;5072879;28;20078;-75
2023/03/22 03:19:45;;;;;;;1999.90;999.90;;;;;;;6.79;100.00;97780.03;5073089;28;20032;-73
2023/03/22 03:22:22;;;;;;;1999.90;999.90;;;;;;;6.77;100.00;97772.16;5073026;28;20603;-73
2023/03/22 03:25:02;;;;;;;1999.90;999.90;;;;;;;6.80;100.00;97776.22;5072945;28;20044;-74
2023/03/22 03:27:35;;;;;;;1999.90;999.90;;;;;;;6.78;100.00;97781.13;5072937;28;20024;-74
2023/03/22 03:30:11;;;;;;;1999.90;999.90;;;;;;;6.83;100.00;97787.34;5074870;28;20389;-74
2023/03/22 03:32:44;;;;;;;1999.90;999.90;;;;;;;6.69;100.00;97780.06;5081545;28;20020;-73
2023/03/22 03:35:26;;;;;;;1999.90;999.90;;;;;;;6.69;100.00;97770.00;5092908;28;20020;-74
2023/03/22 03:38:10;;;;;;;1999.90;999.90;;;;;;;6.71;100.00;97775.16;5073280;28;20029;-74
2023/03/22 03:40:43;;;;;;;1999.90;999.90;;;;;;;6.65;100.00;97768.91;5072279;28;20036;-72
2023/03/22 03:43:11;;;;;;;1999.90;999.90;;;;;;;6.75;100.00;97774.34;5072609;28;20520;-74
2023/03/22 03:45:38;;;;;;;1999.90;999.90;;;;;;;6.65;100.00;97773.53;5071383;28;20406;-75
2023/03/22 03:48:08;;;;;;;1999.90;999.90;;;;;;;6.63;100.00;97775.72;5074835;28;20035;-74
2023/03/22 03:50:34;;;;;;;1999.90;999.90;;;;;;;6.53;100.00;97770.28;5092550;28;20118;-75
2023/03/22 03:53:00;;;;;;;1999.90;999.90;;;;;;;6.65;100.00;97774.34;5092630;28;20111;-75
2023/03/22 03:55:27;;;;;;;1999.90;999.90;;;;;;;6.60;100.00;97785.22;5092659;28;20047;-74
2023/03/22 03:57:52;;;;;;;1999.90;999.90;;;;;;;6.52;100.00;97782.22;5093458;28;20027;-74
2023/03/22 04:00:18;;;;;;;1999.90;999.90;;;;;;;6.46;100.00;97784.97;5096263;28;20145;-77
2023/03/22 04:02:44;;;;;;;1999.90;999.90;;;;;;;6.46;100.00;97782.25;5095461;28;20024;-74
2023/03/22 04:05:11;;;;;;;1999.90;999.90;;;;;;;6.42;100.00;97786.59;5092564;28;20488;-73
2023/03/22 04:07:37;;;;;;;1999.90;999.90;;;;;;;6.50;100.00;97793.38;5092041;28;20024;-74
2023/03/22 04:10:03;;;;;;;1999.90;999.90;;;;;;;6.52;100.00;97787.66;5092036;28;20027;-74
2023/03/22 04:12:28;;;;;;;1999.90;999.90;;;;;;;6.58;100.00;97802.91;5092141;28;20116;-73
2023/03/22 04:14:54;;;;;;;1999.90;999.90;;;;;;;6.57;100.00;97795.84;5092395;28;20103;-74
2023/03/22 04:17:20;;;;;;;1999.90;999.90;;;;;;;6.52;100.00;97790.38;5092131;28;20036;-73
2023/03/22 04:19:46;;;;;;;1999.90;999.90;;;;;;;6.57;100.00;97793.94;5092322;28;20502;-74
2023/03/22 04:22:13;;;;;;;1999.90;999.90;;;;;;;6.59;100.00;97790.94;5090462;28;20528;-74
2023/03/22 04:24:41;;;;;;;1999.90;999.90;;;;;;;6.60;100.00;97798.00;5088561;28;20357;-74
2023/03/22 04:27:07;;;;;;;1999.90;999.90;;;;;;;6.69;100.00;97801.78;5070971;28;20028;-74
2023/03/22 04:29:35;;;;;;;1999.90;999.90;;;;;;;6.64;100.00;97804.53;5072960;28;20508;-78
2023/03/22 04:32:01;;;;;;;1999.90;999.90;;;;;;;6.61;100.00;97808.59;5071962;28;20024;-76
2023/03/22 04:34:26;;;;;;;1999.90;999.90;;;;;;;6.57;100.00;97790.41;5071512;28;20132;-74
2023/03/22 04:36:53;;;;;;;1999.90;999.90;;;;;;;6.73;100.00;97802.88;5072976;28;20137;-81
2023/03/22 04:39:18;;;;;;;1999.90;999.90;;;;;;;6.68;100.00;97794.72;5075093;28;20025;-79
2023/03/22 04:41:44;;;;;;;1999.90;999.90;;;;;;;6.68;100.00;97797.44;5076158;28;20537;-78
2023/03/22 04:44:09;;;;;;;1999.90;999.90;;;;;;;6.59;100.00;97799.91;5073168;28;20039;-77
2023/03/22 04:46:36;;;;;;;1999.90;999.90;;;;;;;6.64;100.00;97788.22;5072740;28;20024;-76
2023/03/22 04:49:02;;;;;;;1999.90;999.90;;;;;;;6.67;100.00;97801.25;5072936;28;20054;-82
2023/03/22 04:51:29;;;;;;;1999.90;999.90;;;;;;;6.59;100.00;97790.94;5071649;28;20074;-77
2023/03/22 04:53:54;;;;;;;1999.90;999.90;;;;;;;6.60;100.00;97808.88;5071994;28;20025;-81
2023/03/22 04:56:20;;;;;;;1999.90;999.90;;;;;;;6.47;100.00;97783.88;5071992;28;20513;-83
2023/03/22 04:58:46;;;;;;;1999.90;999.90;;;;;;;6.64;100.00;97804.53;5072581;28;20416;-77
2023/03/22 05:01:14;;;;;;;1999.90;999.90;;;;;;;6.69;100.00;97804.50;5071842;28;20036;-81
2023/03/22 05:03:41;;;;;;;1999.90;999.90;;;;;;;6.66;100.00;97797.72;5071630;28;20108;-77
2023/03/22 05:06:08;;;;;;;1999.90;999.90;;;;;;;6.66;100.00;97805.88;5071156;28;20024;-79
2023/03/22 05:08:34;;;;;;;1999.90;999.90;;;;;;;6.57;100.00;97807.53;5070792;28;20045;-79
2023/03/22 05:11:07;;;;;;;1999.90;999.90;;;;;;;6.62;100.00;97802.06;5071172;28;20545;-77
2023/03/22 05:13:33;;;;;;;1999.90;999.90;;;;;;;6.60;100.00;97803.44;5071229;28;20130;-76
2023/03/22 05:15:59;;;;;;;1999.90;999.90;;;;;;;6.48;100.00;97799.09;5071877;28;20478;-80
2023/03/22 05:18:26;;;;;;;1999.90;999.90;;;;;;;6.50;100.00;97804.25;5071075;28;20056;-79
2023/03/22 05:20:54;;;;;;;1999.90;999.90;;;;;;;6.54;100.00;97801.81;5077370;28;20066;-79
2023/03/22 05:23:21;;;;;;;1999.90;999.90;;;;;;;6.77;100.00;97810.19;5091695;28;20031;-79
2023/03/22 05:25:47;;;;;;;1999.90;999.90;;;;;;;6.88;100.00;97809.09;5080296;28;20033;-77
2023/03/22 05:28:14;;;;;;;1999.90;999.90;;;;;;;7.07;100.00;97811.22;5088935;28;20111;-78
2023/03/22 05:30:41;;;;;;;1999.90;999.90;;;;;;;7.16;100.00;97813.09;5086344;28;20031;-76
2023/03/22 05:33:07;;;;;;;1999.90;999.90;;;;;;;7.20;100.00;97816.09;5090451;28;20032;-75
2023/03/22 05:35:34;;;;;;;1999.90;999.90;;;;;;;7.27;100.00;97822.03;5085288;28;20031;-78
2023/03/22 05:38:00;;;;;;;1999.90;999.90;;;;;;;7.25;100.00;97821.50;5088820;28;20024;-77
2023/03/22 05:40:26;;;;;;;1999.90;999.90;;;;;;;7.47;100.00;97827.41;5090699;28;20028;-76
2023/03/22 05:42:52;;;;;;;1999.90;999.90;;;;;;;7.42;100.00;97830.16;5089921;28;20024;-79
2023/03/22 05:45:19;;;;;;;1999.90;999.90;;;;;;;7.35;100.00;97829.63;5086977;28;20013;-76
2023/03/22 05:47:44;;;;;;;1999.90;999.90;;;;;;;7.31;100.00;97829.38;5090056;28;20019;-78
2023/03/22 05:50:12;;;;;;;1999.90;999.90;;;;;;;7.36;100.00;97836.72;5089913;28;20100;-75
2023/03/22 05:52:38;;;;;;;1999.90;999.90;;;;;;;7.38;100.00;97838.06;5090485;28;20036;-74
2023/03/22 05:55:04;;;;;;;1999.90;999.90;;;;;;;7.38;100.00;97839.97;5091061;28;20078;-75
2023/03/22 05:57:30;;;;;;;1999.90;999.90;;;;;;;7.42;100.00;97835.59;5091026;28;20032;-75
2023/03/22 05:59:57;;;;;;;1999.90;999.90;;;;;;;7.53;100.00;97851.59;5090253;28;20052;-74
2023/03/22 06:02:22;;;;;;;1999.90;999.90;;;;;;;7.70;100.00;97842.28;5090299;28;20078;-75
2023/03/22 06:04:48;;;;;;;1999.90;999.90;;;;;;;7.82;100.00;97840.88;5091037;28;20016;-74
2023/03/22 06:07:14;;;;;;;1999.90;999.90;;;;;;;7.82;100.00;97840.03;5091699;28;20050;-75
2023/03/22 06:09:40;;;;;;;1999.90;999.90;;;;;;;7.74;100.00;97840.59;5093622;28;20071;-75
2023/03/22 06:12:06;;;;;;;1999.90;999.90;;;;;;;7.86;100.00;97844.63;5091424;28;20127;-74
2023/03/22 06:14:32;;;;;;;1999.90;999.90;;;;;;;7.87;100.00;97840.00;5090584;28;20392;-74
2023/03/22 06:16:57;;;;;;;1999.90;999.90;;;;;;;7.94;100.00;97838.63;5090844;28;20016;-75
2023/03/22 06:19:24;;;;;;;1999.90;999.90;;;;;;;7.97;100.00;97838.03;5090322;28;20032;-75
2023/03/22 06:21:51;;;;;;;1999.90;999.90;;;;;;;7.89;100.00;97835.91;5088168;28;20017;-75
2023/03/22 06:24:20;;;;;;;1999.90;999.90;;;;;;;7.93;100.00;97844.31;5089276;28;20457;-75
2023/03/22 06:26:46;;;;;;;1999.90;999.90;;;;;;;7.99;100.00;97845.91;5089655;28;20528;-75
2023/03/22 06:29:12;;;;;;;1999.90;999.90;;;;;;;8.08;100.00;97841.53;5090067;28;20016;-75
2023/03/22 06:31:37;;;;;;;1999.90;999.90;;;;;;;8.26;100.00;97849.03;5091045;28;20042;-76
2023/03/22 06:34:03;;;;;;;1999.90;999.90;;;;;;;8.35;100.00;97852.81;5085206;28;20597;-76
2023/03/22 06:36:29;;;;;;;1999.90;999.90;;;;;;;8.42;100.00;97850.59;5089597;28;20035;-75
2023/03/22 06:38:56;;;;;;;1999.90;999.90;;;;;;;8.55;100.00;97852.66;5090462;28;20473;-77
2023/03/22 06:41:21;;;;;;;1999.90;999.90;;;;;;;8.69;100.00;97857.47;5090246;28;20044;-75
2023/03/22 06:43:46;;;;;;;1999.90;999.90;;;;;;;8.73;100.00;97859.34;5090603;28;20020;-74
2023/03/22 06:46:12;;;;;;;1999.90;999.90;;;;;;;8.70;100.00;97853.66;5090845;28;20039;-74
2023/03/22 06:48:38;;;;;;;1999.90;999.90;;;;;;;8.81;100.00;97855.16;5090375;28;20032;-78
2023/03/22 06:51:04;;;;;;;1999.90;999.90;;;;;;;8.77;100.00;97852.19;5093486;28;20032;-77
2023/03/22 06:53:29;;;;;;;1999.90;999.90;;;;;;;8.90;100.00;97857.00;5093905;28;20559;-77
2023/03/22 06:55:54;;;;;;;1999.90;999.90;;;;;;;8.85;100.00;97865.22;5094981;28;20028;-78
2023/03/22 06:58:20;;;;;;;1999.90;999.90;;;;;;;8.80;100.00;97851.63;5093983;28;20075;-76
2023/03/22 07:00:45;;;;;;;1999.90;999.90;;;;;;;8.87;100.00;97859.47;5094088;28;20024;-78
2023/03/22 07:03:11;;;;;;;1999.90;999.90;;;;;;;8.88;100.00;97855.66;5094631;28;20028;-77
2023/03/22 07:05:36;;;;;;;1999.90;999.90;;;;;;;8.93;100.00;97864.59;5094028;28;20013;-77
2023/03/22 07:08:01;;;;;;;1999.90;999.90;;;;;;;9.13;100.00;97871.78;5093743;28;20055;-77
2023/03/22 07:10:27;;;;;;;1999.90;999.90;;;;;;;9.22;100.00;97866.50;5094290;28;20096;-78
2023/03/22 07:12:53;;;;;;;1999.90;999.90;;;;;;;9.24;100.00;97872.50;5094419;28;20051;-77
2023/03/22 07:15:23;;;;;;;1999.90;999.90;;;;;;;9.32;100.00;97869.13;5094245;28;20540;-79
2023/03/22 07:17:48;;;;;;;1999.90;999.90;;;;;;;9.21;100.00;97865.69;5093246;28;20024;-77
2023/03/22 07:20:14;;;;;;;1999.90;999.90;;;;;;;9.22;100.00;97867.31;5094536;28;20062;-77
2023/03/22 07:22:39;;;;;;;1999.90;999.90;;;;;;;9.49;100.00;97877.69;5094322;28;20027;-77
2023/03/22 07:25:05;;;;;;;1999.90;999.90;;;;;;;9.45;100.00;97876.66;5093885;28;20502;-78
2023/03/22 07:27:30;;;;;;;1999.90;999.90;;;;;;;9.53;100.00;97856.88;5093772;28;20040;-76
2023/03/22 07:29:55;;;;;;;1999.90;999.90;;;;;;;9.81;100.00;97868.81;5093554;28;20028;-78
2023/03/22 07:32:21;;;;;;;1999.90;999.90;;;;;;;10.10;100.00;97873.09;5093433;28;20043;-76
2023/03/22 07:34:46;;;;;;;1999.90;999.90;;;;;;;9.90;100.00;97883.50;5093456;28;20016;-78
2023/03/22 07:37:12;;;;;;;1999.90;999.90;;;;;;;10.07;100.00;97878.34;5093708;28;20082;-78
2023/03/22 07:39:38;;;;;;;1999.90;999.90;;;;;;;10.28;100.00;97887.91;5093618;28;20020;-79
2023/03/22 07:42:03;;;;;;;1999.90;999.90;;;;;;;10.20;100.00;97881.19;5094048;28;20024;-77
2023/03/22 07:44:28;;;;;;;1999.90;999.90;;;;;;;10.32;100.00;97890.88;5093693;28;20028;-77
2023/03/22 07:46:54;;;;;;;1999.90;999.90;;;;;;;10.51;100.00;97889.75;5093925;28;20047;-77
2023/03/22 07:49:20;;;;;;;1999.90;999.90;;;;;;;10.45;100.00;97893.69;5093724;28;20499;-78
2023/03/22 07:51:45;;;;;;;1999.90;999.90;;;;;;;10.85;100.00;97894.16;5092133;28;20028;-76
2023/03/22 07:54:10;;;;;;;1999.90;999.90;;;;;;;10.83;100.00;97896.38;5093219;28;20125;-76
2023/03/22 07:56:36;;;;;;;1999.90;999.90;;;;;;;10.80;100.00;97891.50;5093133;28;20035;-78
2023/03/22 07:59:01;;;;;;;1999.90;999.90;;;;;;;10.99;100.00;97895.84;5092645;28;20032;-78
2023/03/22 08:01:27;;;;;;;1999.90;999.90;;;;;;;11.17;100.00;97902.38;5091699;28;20665;-76
2023/03/22 08:03:52;;;;;;;1999.90;999.90;;;;;;;12.01;100.00;97903.81;5093833;28;20071;-78
2023/03/22 08:06:20;;;;;;;1999.90;999.90;;;;;;;12.33;100.00;97903.66;5093561;28;20469;-81
2023/03/22 08:08:46;;;;;;;1999.90;999.90;;;;;;;12.85;100.00;97913.16;5093209;28;20130;-80
2023/03/22 08:11:12;;;;;;;1999.90;999.90;;;;;;;13.40;97.24;97893.69;5093385;28;20435;-82
2023/03/22 08:13:38;;;;;;;1999.90;999.90;;;;;;;14.38;91.47;97903.28;5094980;28;20028;-77
2023/03/22 08:16:04;;;;;;;1999.90;999.90;;;;;;;15.84;80.99;97905.13;5100241;28;20032;-81
2023/03/22 08:18:30;;;;;;;1999.90;999.90;;;;;;;16.57;74.81;97915.63;5098538;28;20500;-80
2023/03/22 08:20:57;;;;;;;1999.90;999.90;;;;;;;16.56;74.35;97914.03;5092765;28;20016;-77
2023/03/22 08:23:23;;;;;;;1999.90;999.90;;;;;;;16.39;75.13;97922.38;5094162;28;20128;-78
2023/03/22 08:25:49;;;;;;;1999.90;999.90;;;;;;;16.36;74.49;97913.94;5092588;28;20156;-77
2023/03/22 08:28:15;;;;;;;1999.90;999.90;;;;;;;16.27;73.89;97915.94;5091993;28;20850;-79
2023/03/22 08:30:45;;;;;;;1999.90;999.90;;;;;;;16.04;74.23;97918.97;5092666;28;20076;-81
2023/03/22 08:33:12;;;;;;;1999.90;999.90;;;;;;;15.73;75.91;97912.13;5092602;28;20039;-77
2023/03/22 08:35:38;;;;;;;1999.90;999.90;;;;;;;15.94;76.02;97908.31;5092934;28;20050;-79
2023/03/22 08:38:04;;;;;;;1999.90;999.90;;;;;;;16.69;72.72;97917.69;5092924;28;20078;-80
2023/03/22 08:40:29;;;;;;;1999.90;999.90;;;;;;;16.89;70.66;97919.63;5092904;28;20035;-80
2023/03/22 08:42:55;;;;;;;1999.90;999.90;;;;;;;18.20;65.53;97918.75;5092179;28;20090;-80
2023/03/22 08:45:21;;;;;;;1999.90;999.90;;;;;;;18.64;63.19;97922.56;5092483;28;20077;-80
2023/03/22 08:47:46;;;;;;;1999.90;999.90;;;;;;;19.39;59.54;97917.28;5092134;28;20016;-78
2023/03/22 08:50:12;;;;;;;1999.90;999.90;;;;;;;20.67;53.23;97936.94;5092849;28;20028;-78
2023/03/22 08:52:38;;;;;;;1999.90;999.90;;;;;;;20.12;54.30;97923.22;5092170;28;20032;-80
2023/03/22 08:55:05;;;;;;;1999.90;999.90;;;;;;;20.41;52.60;97919.22;5092155;28;20020;-79
2023/03/22 08:57:30;;;;;;;1999.90;999.90;;;;;;;19.89;54.27;97911.94;5092057;28;20024;-79
2023/03/22 08:59:56;;;;;;;1999.90;999.90;;;;;;;19.25;55.28;97921.28;5092014;28;20032;-79
2023/03/22 09:02:23;;;;;;;1999.90;999.90;;;;;;;19.87;53.30;97919.00;5092115;28;20032;-78
2023/03/22 09:04:49;;;;;;;1999.90;999.90;;;;;;;19.77;53.30;97920.34;5092085;28;20012;-80
2023/03/22 09:07:16;;;;;;;1999.90;999.90;;;;;;;19.54;53.85;97922.09;5092240;28;20105;-79
2023/03/22 09:09:41;;;;;;;1999.90;999.90;;;;;;;19.58;54.32;97912.69;5091753;28;20131;-78
2023/03/22 09:12:07;;;;;;;1999.90;999.90;;;;;;;19.90;52.63;97898.84;5091635;28;20111;-79
2023/03/22 09:14:32;;;;;;;1999.90;999.90;;;;;;;20.18;51.93;97914.28;5092050;28;20024;-79
2023/03/22 09:16:58;;;;;;;1999.90;999.90;;;;;;;20.63;51.01;97918.56;5092162;28;20115;-82
2023/03/22 09:19:23;;;;;;;1999.90;999.90;;;;;;;19.98;52.90;97909.00;5091550;28;20036;-78
2023/03/22 09:21:48;;;;;;;1999.90;999.90;;;;;;;19.87;52.30;97903.16;5091237;28;20035;-80
2023/03/22 09:24:14;;;;;;;1999.90;999.90;;;;;;;19.33;53.54;97899.28;5091520;28;20024;-79
2023/03/22 09:26:40;;;;;;;1999.90;999.90;;;;;;;19.41;54.04;97901.13;5091168;28;20042;-83
2023/03/22 09:29:06;;;;;;;1999.90;999.90;;;;;;;19.40;53.80;97902.25;5091977;28;20465;-80
2023/03/22 09:31:31;;;;;;;1999.90;999.90;;;;;;;19.37;54.03;97894.63;5091662;28;20020;-78
2023/03/22 09:33:57;;;;;;;1999.90;999.90;;;;;;;20.59;50.97;97895.41;5091774;28;20057;-83
2023/03/22 09:36:22;;;;;;;1999.90;999.90;;;;;;;21.30;48.40;97898.59;5091585;28;20035;-79
2023/03/22 09:38:48;;;;;;;1999.90;999.90;;;;;;;21.68;46.97;97902.50;5091944;28;20024;-78
2023/03/22 09:41:22;;;;;;;1999.90;999.90;;;;;;;21.81;46.97;97895.59;5091486;28;20020;-81
2023/03/22 09:43:55;;;;;;;1999.90;999.90;;;;;;;21.10;48.94;97885.88;5091246;28;20035;-81
2023/03/22 09:46:32;;;;;;;1999.90;999.90;;;;;;;21.29;47.54;97888.66;5091259;28;20519;-77
2023/03/22 09:49:01;;;;;;;1999.90;999.90;;;;;;;21.47;47.39;97882.63;5091256;28;20035;-79
2023/03/22 09:51:33;;;;;;;1999.90;999.90;;;;;;;20.21;50.36;97879.41;5089754;28;20038;-77
2023/03/22 09:53:58;;;;;;;1999.90;999.90;;;;;;;19.38;52.95;97880.41;5090820;28;20496;-80
2023/03/22 09:56:28;;;;;;;1999.90;999.90;;;;;;;19.43;53.86;97882.13;5091007;28;20036;-78
2023/03/22 09:59:24;;;;;;;1999.90;999.90;;;;;;;20.99;50.26;97884.00;5091261;28;20024;-78
2023/03/22 10:01:49;;;;;;;;;;;;;;;21.43;48.02;97867.81;5091665;28;20538;-77
2023/03/22 10:04:28;;;;;;;1999.90;999.90;;;;;;;20.86;49.18;97866.66;5090907;28;19912;-80
2023/03/22 10:07:11;;;;;;;1999.90;999.90;;;;;;;20.74;49.40;97863.97;5090966;28;20036;-78
2023/03/22 10:09:55;;;;;;;1999.90;999.90;;;;;;;21.13;48.88;97848.16;5090699;28;21005;-80
2023/03/22 10:12:33;;;;;;;1999.90;999.90;;;;;;;20.24;51.16;97857.25;5091273;28;20032;-81
2023/03/22 10:15:09;;;;;;;1999.90;999.90;;;;;;;21.11;49.18;97861.63;5092166;28;20115;-82
2023/03/22 10:17:37;;;;;;;1999.90;999.90;;;;;;;21.94;46.63;97855.28;5091878;28;20020;-78
2023/03/22 10:20:36;;;;;;;1999.90;999.90;;;;;;;23.22;43.30;97852.38;5090770;28;20039;-80
2023/03/22 10:23:05;;;;;;;1999.90;999.90;;;;;;;23.12;41.96;97851.06;5090184;28;20539;-81
2023/03/22 10:25:38;;;;;;;1999.90;999.90;;;;;;;23.43;42.09;97852.66;5098842;28;20036;-77
2023/03/22 10:28:33;;;;;;;1999.90;999.90;;;;;;;23.44;41.37;97845.88;5099994;28;20077;-82
2023/03/22 10:30:59;;;;;;;1999.90;999.90;;;;;;;22.11;42.98;97849.19;5087657;28;20135;-77
2023/03/22 10:34:02;;;;;;;1999.90;999.90;;;;;;;22.19;44.13;97834.19;5094672;28;20119;-77
2023/03/22 10:36:32;;;;;;;1999.90;999.90;;;;;;;22.06;43.59;97830.00;5094502;28;20032;-77
2023/03/22 10:39:15;;;;;;;1999.90;999.90;;;;;;;22.46;43.56;97828.63;5076957;28;20036;-83
2023/03/22 10:41:41;;;;;;;1999.90;999.90;;;;;;;23.70;40.01;97833.78;5093539;28;20032;-78
2023/03/22 10:44:09;;;;;;;1999.90;999.90;;;;;;;24.17;38.97;97836.63;5093295;28;20105;-79
2023/03/22 10:46:38;;;;;;;1999.90;999.90;;;;;;;23.14;41.44;97825.56;5094821;28;20028;-79
2023/03/22 10:49:06;;;;;;;1999.90;999.90;;;;;;;22.37;41.99;97828.88;5095143;28;20021;-78
2023/03/22 10:51:39;;;;;;;1999.90;999.90;;;;;;;23.00;41.10;97817.81;5094571;28;20054;-80
2023/03/22 10:54:05;;;;;;;1999.90;999.90;;;;;;;22.48;41.68;97824.28;5094360;28;20404;-77
2023/03/22 10:56:31;;;;;;;1999.90;999.90;;;;;;;22.57;42.43;97821.19;5094289;28;20051;-78
2023/03/22 10:58:56;;;;;;;1999.90;999.90;;;;;;;22.95;40.63;97809.78;5095123;28;20554;-78
2023/03/22 11:01:30;;;;;;;1999.90;999.90;;;;;;;22.61;40.69;97805.34;5094305;28;20028;-77
2023/03/22 11:04:15;;;;;;;1999.90;999.90;;;;;;;23.74;39.44;97801.09;5094385;28;20027;-79